sensor_id;sensor_type;location;lat;lon;timestamp;P1;durP1;ratioP1;P2;durP2;ratioP2
12871;SDS011;6504;53.766;9.626;2023-03-14T00:01:10;15.43;;;4.20;;
12871;SDS011;6504;53.766;9.626;2023-03-14T00:03:39;10.83;;;3.70;;
12871;SDS011;6504;53.766;9.626;2023-03-14T00:06:08;11.20;;;3.87;;
12871;SDS011;6504;53.766;9.626;2023-03-14T00:08:37;13.57;;;4.23;;
12871;SDS011;6504;53.766;9.626;2023-03-14T00:11:06;14.23;;;4.70;;
12871;SDS011;6504;53.766;9.626;2023-03-14T00:13:35;13.70;;;4.10;;
12871;SDS011;6504;53.766;9.626;2023-03-14T00:16:04;12.13;;;3.50;;
12871;SDS011;6504;53.766;9.626;2023-03-14T00:18:36;12.77;;;4.17;;
12871;SDS011;6504;53.766;9.626;2023-03-14T00:21:05;14.53;;;4.23;;
12871;SDS011;6504;53.766;9.626;2023-03-14T00:23:35;15.37;;;5.00;;
12871;SDS011;6504;53.766;9.626;2023-03-14T00:26:07;15.13;;;3.80;;
12871;SDS011;6504;53.766;9.626;2023-03-14T00:28:37;12.97;;;4.47;;
12871;SDS011;6504;53.766;9.626;2023-03-14T00:31:06;14.53;;;4.93;;
12871;SDS011;6504;53.766;9.626;2023-03-14T00:33:36;14.33;;;4.20;;
12871;SDS011;6504;53.766;9.626;2023-03-14T00:36:05;12.80;;;4.10;;
12871;SDS011;6504;53.766;9.626;2023-03-14T00:38:36;16.13;;;3.83;;
12871;SDS011;6504;53.766;9.626;2023-03-14T00:41:06;11.80;;;3.93;;
12871;SDS011;6504;53.766;9.626;2023-03-14T00:43:35;11.80;;;4.40;;
12871;SDS011;6504;53.766;9.626;2023-03-14T00:46:03;9.70;;;4.20;;
12871;SDS011;6504;53.766;9.626;2023-03-14T00:48:32;17.27;;;4.37;;
12871;SDS011;6504;53.766;9.626;2023-03-14T00:51:02;13.70;;;4.10;;
12871;SDS011;6504;53.766;9.626;2023-03-14T00:53:30;13.17;;;4.30;;
12871;SDS011;6504;53.766;9.626;2023-03-14T00:56:01;14.60;;;4.23;;
12871;SDS011;6504;53.766;9.626;2023-03-14T00:58:30;10.17;;;4.13;;
12871;SDS011;6504;53.766;9.626;2023-03-14T01:00:58;9.93;;;3.70;;
12871;SDS011;6504;53.766;9.626;2023-03-14T01:03:26;11.53;;;4.70;;
12871;SDS011;6504;53.766;9.626;2023-03-14T01:05:54;8.77;;;3.77;;
12871;SDS011;6504;53.766;9.626;2023-03-14T01:08:36;9.90;;;4.33;;
12871;SDS011;6504;53.766;9.626;2023-03-14T01:11:05;9.37;;;3.70;;
12871;SDS011;6504;53.766;9.626;2023-03-14T01:13:34;10.53;;;4.00;;
12871;SDS011;6504;53.766;9.626;2023-03-14T01:16:03;12.13;;;4.23;;
12871;SDS011;6504;53.766;9.626;2023-03-14T01:18:32;11.87;;;3.80;;
12871;SDS011;6504;53.766;9.626;2023-03-14T01:21:02;11.60;;;4.20;;
12871;SDS011;6504;53.766;9.626;2023-03-14T01:23:32;11.47;;;4.40;;
12871;SDS011;6504;53.766;9.626;2023-03-14T01:26:00;10.50;;;3.83;;
12871;SDS011;6504;53.766;9.626;2023-03-14T01:28:28;9.87;;;4.07;;
12871;SDS011;6504;53.766;9.626;2023-03-14T01:31:01;11.80;;;4.10;;
12871;SDS011;6504;53.766;9.626;2023-03-14T01:33:30;11.83;;;3.67;;
12871;SDS011;6504;53.766;9.626;2023-03-14T01:35:58;9.90;;;3.80;;
12871;SDS011;6504;53.766;9.626;2023-03-14T01:38:28;14.00;;;3.83;;
12871;SDS011;6504;53.766;9.626;2023-03-14T01:40:58;10.20;;;3.43;;
12871;SDS011;6504;53.766;9.626;2023-03-14T01:43:26;10.87;;;4.10;;
12871;SDS011;6504;53.766;9.626;2023-03-14T01:46:11;13.30;;;4.47;;
12871;SDS011;6504;53.766;9.626;2023-03-14T01:48:50;9.00;;;3.43;;
12871;SDS011;6504;53.766;9.626;2023-03-14T01:51:25;11.63;;;4.23;;
12871;SDS011;6504;53.766;9.626;2023-03-14T01:53:59;12.73;;;4.33;;
12871;SDS011;6504;53.766;9.626;2023-03-14T01:56:33;11.40;;;3.47;;
12871;SDS011;6504;53.766;9.626;2023-03-14T01:59:03;11.07;;;3.77;;
12871;SDS011;6504;53.766;9.626;2023-03-14T02:01:33;10.63;;;4.23;;
12871;SDS011;6504;53.766;9.626;2023-03-14T02:04:03;10.17;;;3.70;;
12871;SDS011;6504;53.766;9.626;2023-03-14T02:06:34;10.67;;;3.80;;
12871;SDS011;6504;53.766;9.626;2023-03-14T02:09:08;9.80;;;3.77;;
12871;SDS011;6504;53.766;9.626;2023-03-14T02:11:37;6.90;;;3.43;;
12871;SDS011;6504;53.766;9.626;2023-03-14T02:14:07;8.83;;;3.47;;
12871;SDS011;6504;53.766;9.626;2023-03-14T02:16:37;10.83;;;4.07;;
12871;SDS011;6504;53.766;9.626;2023-03-14T02:19:05;10.53;;;3.90;;
12871;SDS011;6504;53.766;9.626;2023-03-14T02:21:38;7.37;;;3.67;;
12871;SDS011;6504;53.766;9.626;2023-03-14T02:24:16;10.80;;;3.77;;
12871;SDS011;6504;53.766;9.626;2023-03-14T02:27:05;6.80;;;3.80;;
12871;SDS011;6504;53.766;9.626;2023-03-14T02:29:35;6.60;;;3.43;;
12871;SDS011;6504;53.766;9.626;2023-03-14T02:32:06;8.03;;;3.70;;
12871;SDS011;6504;53.766;9.626;2023-03-14T02:34:35;6.77;;;3.33;;
12871;SDS011;6504;53.766;9.626;2023-03-14T02:37:03;9.10;;;4.33;;
12871;SDS011;6504;53.766;9.626;2023-03-14T02:39:35;8.83;;;3.90;;
12871;SDS011;6504;53.766;9.626;2023-03-14T02:42:06;10.63;;;3.70;;
12871;SDS011;6504;53.766;9.626;2023-03-14T02:44:34;10.77;;;4.20;;
12871;SDS011;6504;53.766;9.626;2023-03-14T02:47:02;10.43;;;4.30;;
12871;SDS011;6504;53.766;9.626;2023-03-14T02:49:31;10.33;;;4.03;;
12871;SDS011;6504;53.766;9.626;2023-03-14T02:52:01;8.97;;;4.83;;
12871;SDS011;6504;53.766;9.626;2023-03-14T02:54:29;10.40;;;4.43;;
12871;SDS011;6504;53.766;9.626;2023-03-14T02:56:57;9.37;;;4.77;;
12871;SDS011;6504;53.766;9.626;2023-03-14T02:59:26;6.50;;;4.80;;
12871;SDS011;6504;53.766;9.626;2023-03-14T03:01:54;7.53;;;4.90;;
12871;SDS011;6504;53.766;9.626;2023-03-14T03:04:22;9.27;;;5.80;;
12871;SDS011;6504;53.766;9.626;2023-03-14T03:06:50;7.10;;;5.97;;
12871;SDS011;6504;53.766;9.626;2023-03-14T03:09:18;8.30;;;6.20;;
12871;SDS011;6504;53.766;9.626;2023-03-14T03:11:46;8.33;;;6.47;;
12871;SDS011;6504;53.766;9.626;2023-03-14T03:14:14;9.87;;;7.07;;
12871;SDS011;6504;53.766;9.626;2023-03-14T03:16:44;11.37;;;7.50;;
12871;SDS011;6504;53.766;9.626;2023-03-14T03:19:12;9.40;;;6.87;;
12871;SDS011;6504;53.766;9.626;2023-03-14T03:21:42;10.73;;;7.40;;
12871;SDS011;6504;53.766;9.626;2023-03-14T03:24:10;10.03;;;6.87;;
12871;SDS011;6504;53.766;9.626;2023-03-14T03:26:38;9.23;;;6.63;;
12871;SDS011;6504;53.766;9.626;2023-03-14T03:29:06;10.27;;;6.83;;
12871;SDS011;6504;53.766;9.626;2023-03-14T03:31:36;8.87;;;6.67;;
12871;SDS011;6504;53.766;9.626;2023-03-14T03:34:05;11.67;;;7.33;;
12871;SDS011;6504;53.766;9.626;2023-03-14T03:36:33;11.33;;;7.40;;
12871;SDS011;6504;53.766;9.626;2023-03-14T03:39:05;8.40;;;7.23;;
12871;SDS011;6504;53.766;9.626;2023-03-14T03:41:33;10.10;;;6.90;;
12871;SDS011;6504;53.766;9.626;2023-03-14T03:44:01;9.50;;;7.10;;
12871;SDS011;6504;53.766;9.626;2023-03-14T03:46:29;10.00;;;7.47;;
12871;SDS011;6504;53.766;9.626;2023-03-14T03:48:58;11.87;;;7.17;;
12871;SDS011;6504;53.766;9.626;2023-03-14T03:51:28;10.00;;;6.93;;
12871;SDS011;6504;53.766;9.626;2023-03-14T03:53:56;10.00;;;7.27;;
12871;SDS011;6504;53.766;9.626;2023-03-14T03:56:24;10.93;;;6.90;;
12871;SDS011;6504;53.766;9.626;2023-03-14T03:58:52;9.37;;;7.23;;
12871;SDS011;6504;53.766;9.626;2023-03-14T04:01:20;9.50;;;7.33;;
12871;SDS011;6504;53.766;9.626;2023-03-14T04:03:48;11.07;;;7.00;;
12871;SDS011;6504;53.766;9.626;2023-03-14T04:06:17;8.50;;;6.40;;
12871;SDS011;6504;53.766;9.626;2023-03-14T04:08:46;12.97;;;7.60;;
12871;SDS011;6504;53.766;9.626;2023-03-14T04:11:14;5.53;;;4.03;;
12871;SDS011;6504;53.766;9.626;2023-03-14T04:13:43;4.17;;;2.00;;
12871;SDS011;6504;53.766;9.626;2023-03-14T04:16:12;4.27;;;1.60;;
12871;SDS011;6504;53.766;9.626;2023-03-14T04:18:44;2.63;;;1.40;;
12871;SDS011;6504;53.766;9.626;2023-03-14T04:21:12;3.17;;;1.83;;
12871;SDS011;6504;53.766;9.626;2023-03-14T04:23:40;1.87;;;1.47;;
12871;SDS011;6504;53.766;9.626;2023-03-14T04:26:09;3.70;;;1.70;;
12871;SDS011;6504;53.766;9.626;2023-03-14T04:28:37;3.27;;;1.50;;
12871;SDS011;6504;53.766;9.626;2023-03-14T04:31:06;4.53;;;1.60;;
12871;SDS011;6504;53.766;9.626;2023-03-14T04:33:35;3.83;;;2.03;;
12871;SDS011;6504;53.766;9.626;2023-03-14T04:36:03;5.13;;;1.80;;
12871;SDS011;6504;53.766;9.626;2023-03-14T04:38:33;5.43;;;2.20;;
12871;SDS011;6504;53.766;9.626;2023-03-14T04:41:01;3.97;;;1.97;;
12871;SDS011;6504;53.766;9.626;2023-03-14T04:43:31;4.03;;;2.50;;
12871;SDS011;6504;53.766;9.626;2023-03-14T04:45:59;6.30;;;2.73;;
12871;SDS011;6504;53.766;9.626;2023-03-14T04:48:27;4.17;;;2.60;;
12871;SDS011;6504;53.766;9.626;2023-03-14T04:50:55;5.60;;;3.00;;
12871;SDS011;6504;53.766;9.626;2023-03-14T04:53:23;7.37;;;2.90;;
12871;SDS011;6504;53.766;9.626;2023-03-14T04:55:52;4.80;;;2.87;;
12871;SDS011;6504;53.766;9.626;2023-03-14T04:58:22;4.70;;;2.90;;
12871;SDS011;6504;53.766;9.626;2023-03-14T05:00:52;4.33;;;2.60;;
12871;SDS011;6504;53.766;9.626;2023-03-14T05:03:20;6.40;;;2.80;;
12871;SDS011;6504;53.766;9.626;2023-03-14T05:05:48;5.83;;;2.80;;
12871;SDS011;6504;53.766;9.626;2023-03-14T05:08:16;5.13;;;3.20;;
12871;SDS011;6504;53.766;9.626;2023-03-14T05:13:31;9.13;;;2.90;;
12871;SDS011;6504;53.766;9.626;2023-03-14T05:16:08;5.63;;;3.00;;
12871;SDS011;6504;53.766;9.626;2023-03-14T05:18:37;6.60;;;2.87;;
12871;SDS011;6504;53.766;9.626;2023-03-14T05:21:05;6.73;;;3.33;;
12871;SDS011;6504;53.766;9.626;2023-03-14T05:23:34;5.47;;;3.00;;
12871;SDS011;6504;53.766;9.626;2023-03-14T05:26:02;4.00;;;2.70;;
12871;SDS011;6504;53.766;9.626;2023-03-14T05:28:30;6.63;;;3.20;;
12871;SDS011;6504;53.766;9.626;2023-03-14T05:30:58;8.00;;;2.60;;
12871;SDS011;6504;53.766;9.626;2023-03-14T05:33:27;5.53;;;2.67;;
12871;SDS011;6504;53.766;9.626;2023-03-14T05:35:55;6.17;;;3.10;;
12871;SDS011;6504;53.766;9.626;2023-03-14T05:38:23;5.53;;;3.20;;
12871;SDS011;6504;53.766;9.626;2023-03-14T05:40:51;3.97;;;2.70;;
12871;SDS011;6504;53.766;9.626;2023-03-14T05:43:19;5.77;;;2.67;;
12871;SDS011;6504;53.766;9.626;2023-03-14T05:45:47;7.20;;;3.60;;
12871;SDS011;6504;53.766;9.626;2023-03-14T05:48:16;4.77;;;2.70;;
12871;SDS011;6504;53.766;9.626;2023-03-14T05:50:45;4.80;;;2.60;;
12871;SDS011;6504;53.766;9.626;2023-03-14T05:53:13;5.60;;;2.80;;
12871;SDS011;6504;53.766;9.626;2023-03-14T05:55:41;5.07;;;3.10;;
12871;SDS011;6504;53.766;9.626;2023-03-14T05:58:09;5.97;;;3.00;;
12871;SDS011;6504;53.766;9.626;2023-03-14T06:00:37;4.90;;;3.20;;
12871;SDS011;6504;53.766;9.626;2023-03-14T06:03:05;5.63;;;2.90;;
12871;SDS011;6504;53.766;9.626;2023-03-14T06:05:34;7.80;;;3.63;;
12871;SDS011;6504;53.766;9.626;2023-03-14T06:08:03;5.00;;;3.10;;
12871;SDS011;6504;53.766;9.626;2023-03-14T06:10:31;4.93;;;2.90;;
12871;SDS011;6504;53.766;9.626;2023-03-14T06:13:01;5.40;;;3.10;;
12871;SDS011;6504;53.766;9.626;2023-03-14T06:15:30;6.57;;;3.30;;
12871;SDS011;6504;53.766;9.626;2023-03-14T06:18:09;6.93;;;4.00;;
12871;SDS011;6504;53.766;9.626;2023-03-14T06:20:38;7.37;;;3.60;;
12871;SDS011;6504;53.766;9.626;2023-03-14T06:23:08;6.10;;;3.50;;
12871;SDS011;6504;53.766;9.626;2023-03-14T06:25:37;9.83;;;3.53;;
12871;SDS011;6504;53.766;9.626;2023-03-14T06:28:05;5.27;;;3.57;;
12871;SDS011;6504;53.766;9.626;2023-03-14T06:30:33;6.77;;;3.70;;
12871;SDS011;6504;53.766;9.626;2023-03-14T06:33:01;7.10;;;3.60;;
12871;SDS011;6504;53.766;9.626;2023-03-14T06:35:30;5.10;;;3.60;;
12871;SDS011;6504;53.766;9.626;2023-03-14T06:37:58;5.77;;;3.57;;
12871;SDS011;6504;53.766;9.626;2023-03-14T06:40:27;6.63;;;3.40;;
12871;SDS011;6504;53.766;9.626;2023-03-14T06:42:55;6.90;;;3.53;;
12871;SDS011;6504;53.766;9.626;2023-03-14T06:45:24;6.43;;;3.23;;
12871;SDS011;6504;53.766;9.626;2023-03-14T06:47:52;8.43;;;3.83;;
12871;SDS011;6504;53.766;9.626;2023-03-14T06:50:20;5.77;;;3.50;;
12871;SDS011;6504;53.766;9.626;2023-03-14T06:52:49;6.90;;;3.43;;
12871;SDS011;6504;53.766;9.626;2023-03-14T06:55:17;6.70;;;3.30;;
12871;SDS011;6504;53.766;9.626;2023-03-14T06:57:49;4.93;;;3.17;;
12871;SDS011;6504;53.766;9.626;2023-03-14T07:00:17;5.97;;;3.50;;
12871;SDS011;6504;53.766;9.626;2023-03-14T07:02:46;6.80;;;3.37;;
12871;SDS011;6504;53.766;9.626;2023-03-14T07:05:14;8.03;;;3.40;;
12871;SDS011;6504;53.766;9.626;2023-03-14T07:07:42;6.57;;;3.43;;
12871;SDS011;6504;53.766;9.626;2023-03-14T07:10:10;7.70;;;3.40;;
12871;SDS011;6504;53.766;9.626;2023-03-14T07:12:38;8.53;;;3.40;;
12871;SDS011;6504;53.766;9.626;2023-03-14T07:15:08;7.00;;;3.60;;
12871;SDS011;6504;53.766;9.626;2023-03-14T07:17:50;6.43;;;3.07;;
12871;SDS011;6504;53.766;9.626;2023-03-14T07:20:18;9.43;;;4.13;;
12871;SDS011;6504;53.766;9.626;2023-03-14T07:22:47;8.83;;;3.60;;
12871;SDS011;6504;53.766;9.626;2023-03-14T07:25:15;9.63;;;3.73;;
12871;SDS011;6504;53.766;9.626;2023-03-14T07:27:44;6.83;;;3.70;;
12871;SDS011;6504;53.766;9.626;2023-03-14T07:30:14;6.37;;;3.70;;
12871;SDS011;6504;53.766;9.626;2023-03-14T07:32:42;8.53;;;3.50;;
12871;SDS011;6504;53.766;9.626;2023-03-14T07:35:10;7.77;;;3.50;;
12871;SDS011;6504;53.766;9.626;2023-03-14T07:37:38;6.70;;;3.77;;
12871;SDS011;6504;53.766;9.626;2023-03-14T07:40:07;5.00;;;3.40;;
12871;SDS011;6504;53.766;9.626;2023-03-14T07:42:36;9.20;;;3.93;;
12871;SDS011;6504;53.766;9.626;2023-03-14T07:45:06;6.03;;;3.03;;
12871;SDS011;6504;53.766;9.626;2023-03-14T07:47:36;4.90;;;3.27;;
12871;SDS011;6504;53.766;9.626;2023-03-14T07:50:05;7.07;;;3.60;;
12871;SDS011;6504;53.766;9.626;2023-03-14T07:52:34;7.03;;;3.90;;
12871;SDS011;6504;53.766;9.626;2023-03-14T07:55:02;6.20;;;3.93;;
12871;SDS011;6504;53.766;9.626;2023-03-14T07:57:30;7.07;;;4.30;;
12871;SDS011;6504;53.766;9.626;2023-03-14T07:59:58;8.73;;;4.30;;
12871;SDS011;6504;53.766;9.626;2023-03-14T08:02:26;8.43;;;4.23;;
12871;SDS011;6504;53.766;9.626;2023-03-14T08:04:56;8.00;;;4.23;;
12871;SDS011;6504;53.766;9.626;2023-03-14T08:07:24;7.47;;;3.97;;
12871;SDS011;6504;53.766;9.626;2023-03-14T08:09:52;9.03;;;4.43;;
12871;SDS011;6504;53.766;9.626;2023-03-14T08:12:20;10.13;;;4.87;;
12871;SDS011;6504;53.766;9.626;2023-03-14T08:14:48;7.10;;;4.10;;
12871;SDS011;6504;53.766;9.626;2023-03-14T08:17:16;10.50;;;4.07;;
12871;SDS011;6504;53.766;9.626;2023-03-14T08:19:44;8.47;;;3.90;;
12871;SDS011;6504;53.766;9.626;2023-03-14T08:22:13;6.47;;;3.80;;
12871;SDS011;6504;53.766;9.626;2023-03-14T08:24:45;8.30;;;4.10;;
12871;SDS011;6504;53.766;9.626;2023-03-14T08:27:13;6.43;;;3.60;;
12871;SDS011;6504;53.766;9.626;2023-03-14T08:29:41;9.27;;;4.50;;
12871;SDS011;6504;53.766;9.626;2023-03-14T08:32:10;8.30;;;4.23;;
12871;SDS011;6504;53.766;9.626;2023-03-14T08:34:38;7.63;;;3.90;;
12871;SDS011;6504;53.766;9.626;2023-03-14T08:37:06;6.10;;;3.70;;
12871;SDS011;6504;53.766;9.626;2023-03-14T08:39:52;4.63;;;3.67;;
12871;SDS011;6504;53.766;9.626;2023-03-14T08:42:20;7.50;;;4.20;;
12871;SDS011;6504;53.766;9.626;2023-03-14T08:44:50;5.93;;;3.40;;
12871;SDS011;6504;53.766;9.626;2023-03-14T08:47:18;8.67;;;4.60;;
12871;SDS011;6504;53.766;9.626;2023-03-14T08:49:46;6.93;;;3.63;;
12871;SDS011;6504;53.766;9.626;2023-03-14T08:52:14;4.30;;;3.77;;
12871;SDS011;6504;53.766;9.626;2023-03-14T08:54:43;5.97;;;3.80;;
12871;SDS011;6504;53.766;9.626;2023-03-14T08:57:13;5.43;;;3.77;;
12871;SDS011;6504;53.766;9.626;2023-03-14T08:59:41;7.40;;;3.93;;
12871;SDS011;6504;53.766;9.626;2023-03-14T09:02:09;8.03;;;4.20;;
12871;SDS011;6504;53.766;9.626;2023-03-14T09:04:39;7.97;;;4.50;;
12871;SDS011;6504;53.766;9.626;2023-03-14T09:07:07;8.57;;;4.37;;
12871;SDS011;6504;53.766;9.626;2023-03-14T09:09:35;8.10;;;4.03;;
12871;SDS011;6504;53.766;9.626;2023-03-14T09:12:04;2.83;;;2.07;;
12871;SDS011;6504;53.766;9.626;2023-03-14T09:14:33;4.67;;;1.57;;
12871;SDS011;6504;53.766;9.626;2023-03-14T09:17:02;4.07;;;1.70;;
12871;SDS011;6504;53.766;9.626;2023-03-14T09:19:30;3.60;;;1.70;;
12871;SDS011;6504;53.766;9.626;2023-03-14T09:21:58;5.77;;;2.10;;
12871;SDS011;6504;53.766;9.626;2023-03-14T09:24:26;3.57;;;1.70;;
12871;SDS011;6504;53.766;9.626;2023-03-14T09:26:54;2.87;;;1.40;;
12871;SDS011;6504;53.766;9.626;2023-03-14T09:29:23;3.67;;;1.77;;
12871;SDS011;6504;53.766;9.626;2023-03-14T09:31:52;2.93;;;1.30;;
12871;SDS011;6504;53.766;9.626;2023-03-14T09:34:20;3.17;;;1.40;;
12871;SDS011;6504;53.766;9.626;2023-03-14T09:36:48;3.50;;;1.40;;
12871;SDS011;6504;53.766;9.626;2023-03-14T09:39:16;2.33;;;1.30;;
12871;SDS011;6504;53.766;9.626;2023-03-14T09:41:45;1.93;;;1.10;;
12871;SDS011;6504;53.766;9.626;2023-03-14T09:44:16;4.23;;;1.40;;
12871;SDS011;6504;53.766;9.626;2023-03-14T09:46:50;3.50;;;0.90;;
12871;SDS011;6504;53.766;9.626;2023-03-14T09:49:21;3.27;;;1.53;;
12871;SDS011;6504;53.766;9.626;2023-03-14T09:51:55;1.03;;;0.83;;
12871;SDS011;6504;53.766;9.626;2023-03-14T09:54:34;2.73;;;0.90;;
12871;SDS011;6504;53.766;9.626;2023-03-14T09:57:04;1.47;;;0.80;;
12871;SDS011;6504;53.766;9.626;2023-03-14T09:59:33;1.93;;;1.20;;
12871;SDS011;6504;53.766;9.626;2023-03-14T10:02:13;1.47;;;1.00;;
12871;SDS011;6504;53.766;9.626;2023-03-14T10:04:44;0.97;;;0.90;;
12871;SDS011;6504;53.766;9.626;2023-03-14T10:07:14;1.73;;;0.80;;
12871;SDS011;6504;53.766;9.626;2023-03-14T10:09:46;1.23;;;0.70;;
12871;SDS011;6504;53.766;9.626;2023-03-14T10:12:16;2.00;;;1.60;;
12871;SDS011;6504;53.766;9.626;2023-03-14T10:14:47;1.70;;;0.90;;
12871;SDS011;6504;53.766;9.626;2023-03-14T10:17:18;1.50;;;0.80;;
12871;SDS011;6504;53.766;9.626;2023-03-14T10:19:52;2.63;;;0.80;;
12871;SDS011;6504;53.766;9.626;2023-03-14T10:22:21;0.63;;;0.60;;
12871;SDS011;6504;53.766;9.626;2023-03-14T10:24:53;1.53;;;0.80;;
12871;SDS011;6504;53.766;9.626;2023-03-14T10:27:27;2.00;;;0.90;;
12871;SDS011;6504;53.766;9.626;2023-03-14T10:29:57;0.60;;;0.60;;
12871;SDS011;6504;53.766;9.626;2023-03-14T10:32:31;0.93;;;0.60;;
12871;SDS011;6504;53.766;9.626;2023-03-14T10:35:19;1.97;;;0.97;;
12871;SDS011;6504;53.766;9.626;2023-03-14T10:37:50;2.93;;;1.33;;
12871;SDS011;6504;53.766;9.626;2023-03-14T10:40:24;2.03;;;0.90;;
12871;SDS011;6504;53.766;9.626;2023-03-14T10:42:58;1.33;;;0.70;;
12871;SDS011;6504;53.766;9.626;2023-03-14T10:45:34;1.53;;;0.90;;
12871;SDS011;6504;53.766;9.626;2023-03-14T10:48:18;1.67;;;1.03;;
12871;SDS011;6504;53.766;9.626;2023-03-14T10:50:48;3.17;;;1.07;;
12871;SDS011;6504;53.766;9.626;2023-03-14T10:53:20;2.37;;;1.20;;
12871;SDS011;6504;53.766;9.626;2023-03-14T10:55:51;2.37;;;1.00;;
12871;SDS011;6504;53.766;9.626;2023-03-14T10:58:23;1.83;;;1.10;;
12871;SDS011;6504;53.766;9.626;2023-03-14T11:01:05;2.97;;;1.20;;
12871;SDS011;6504;53.766;9.626;2023-03-14T11:03:49;2.77;;;1.00;;
12871;SDS011;6504;53.766;9.626;2023-03-14T11:06:23;1.80;;;1.00;;
12871;SDS011;6504;53.766;9.626;2023-03-14T11:09:00;2.50;;;1.00;;
12871;SDS011;6504;53.766;9.626;2023-03-14T11:11:35;3.80;;;1.13;;
12871;SDS011;6504;53.766;9.626;2023-03-14T11:14:08;3.13;;;1.17;;
12871;SDS011;6504;53.766;9.626;2023-03-14T11:16:46;2.57;;;1.10;;
12871;SDS011;6504;53.766;9.626;2023-03-14T11:22:20;5.20;;;1.30;;
12871;SDS011;6504;53.766;9.626;2023-03-14T11:25:01;5.03;;;1.60;;
12871;SDS011;6504;53.766;9.626;2023-03-14T11:27:44;4.67;;;1.50;;
12871;SDS011;6504;53.766;9.626;2023-03-14T11:30:19;4.90;;;1.50;;
12871;SDS011;6504;53.766;9.626;2023-03-14T11:32:56;4.73;;;1.93;;
12871;SDS011;6504;53.766;9.626;2023-03-14T11:35:33;3.20;;;1.33;;
12871;SDS011;6504;53.766;9.626;2023-03-14T11:38:09;7.83;;;1.77;;
12871;SDS011;6504;53.766;9.626;2023-03-14T11:40:40;3.47;;;1.40;;
12871;SDS011;6504;53.766;9.626;2023-03-14T11:43:11;8.10;;;1.83;;
12871;SDS011;6504;53.766;9.626;2023-03-14T11:45:43;7.00;;;1.80;;
12871;SDS011;6504;53.766;9.626;2023-03-14T11:48:15;7.43;;;2.47;;
12871;SDS011;6504;53.766;9.626;2023-03-14T11:50:52;5.23;;;2.20;;
12871;SDS011;6504;53.766;9.626;2023-03-14T11:53:22;5.53;;;1.63;;
12871;SDS011;6504;53.766;9.626;2023-03-14T11:56:02;6.60;;;1.80;;
12871;SDS011;6504;53.766;9.626;2023-03-14T11:58:31;5.60;;;2.00;;
12871;SDS011;6504;53.766;9.626;2023-03-14T12:01:06;8.00;;;2.57;;
12871;SDS011;6504;53.766;9.626;2023-03-14T12:03:41;8.70;;;1.97;;
12871;SDS011;6504;53.766;9.626;2023-03-14T12:06:15;7.23;;;2.37;;
12871;SDS011;6504;53.766;9.626;2023-03-14T12:08:50;7.87;;;2.47;;
12871;SDS011;6504;53.766;9.626;2023-03-14T12:11:21;9.93;;;2.33;;
12871;SDS011;6504;53.766;9.626;2023-03-14T12:13:58;5.53;;;2.17;;
12871;SDS011;6504;53.766;9.626;2023-03-14T12:16:32;7.33;;;2.23;;
12871;SDS011;6504;53.766;9.626;2023-03-14T12:19:24;7.73;;;2.43;;
12871;SDS011;6504;53.766;9.626;2023-03-14T12:21:57;7.33;;;2.20;;
12871;SDS011;6504;53.766;9.626;2023-03-14T12:24:29;8.23;;;2.20;;
12871;SDS011;6504;53.766;9.626;2023-03-14T12:27:00;7.47;;;2.20;;
12871;SDS011;6504;53.766;9.626;2023-03-14T12:29:30;13.00;;;2.80;;
12871;SDS011;6504;53.766;9.626;2023-03-14T12:32:09;13.70;;;2.23;;
12871;SDS011;6504;53.766;9.626;2023-03-14T12:34:49;12.63;;;2.93;;
12871;SDS011;6504;53.766;9.626;2023-03-14T12:37:25;13.47;;;4.73;;
12871;SDS011;6504;53.766;9.626;2023-03-14T12:39:59;10.33;;;3.00;;
12871;SDS011;6504;53.766;9.626;2023-03-14T12:42:43;14.07;;;3.33;;
12871;SDS011;6504;53.766;9.626;2023-03-14T12:48:08;9.70;;;3.30;;
12871;SDS011;6504;53.766;9.626;2023-03-14T12:50:40;8.63;;;2.60;;
12871;SDS011;6504;53.766;9.626;2023-03-14T12:56:18;7.90;;;2.40;;
12871;SDS011;6504;53.766;9.626;2023-03-14T12:58:54;8.53;;;2.83;;
12871;SDS011;6504;53.766;9.626;2023-03-14T13:01:44;5.97;;;2.10;;
12871;SDS011;6504;53.766;9.626;2023-03-14T13:04:15;7.57;;;2.10;;
12871;SDS011;6504;53.766;9.626;2023-03-14T13:06:55;5.00;;;1.90;;
12871;SDS011;6504;53.766;9.626;2023-03-14T13:09:48;9.40;;;2.30;;
12871;SDS011;6504;53.766;9.626;2023-03-14T13:12:23;8.70;;;2.27;;
12871;SDS011;6504;53.766;9.626;2023-03-14T13:14:57;5.77;;;2.47;;
12871;SDS011;6504;53.766;9.626;2023-03-14T13:17:30;12.73;;;2.43;;
12871;SDS011;6504;53.766;9.626;2023-03-14T13:20:04;10.33;;;3.17;;
12871;SDS011;6504;53.766;9.626;2023-03-14T13:22:39;8.63;;;3.27;;
12871;SDS011;6504;53.766;9.626;2023-03-14T13:25:15;8.53;;;2.50;;
12871;SDS011;6504;53.766;9.626;2023-03-14T13:27:44;9.93;;;2.33;;
12871;SDS011;6504;53.766;9.626;2023-03-14T13:30:16;8.83;;;2.60;;
12871;SDS011;6504;53.766;9.626;2023-03-14T13:32:48;8.80;;;2.50;;
12871;SDS011;6504;53.766;9.626;2023-03-14T13:35:18;6.40;;;2.10;;
12871;SDS011;6504;53.766;9.626;2023-03-14T13:37:52;11.90;;;2.60;;
12871;SDS011;6504;53.766;9.626;2023-03-14T13:40:37;7.90;;;2.30;;
12871;SDS011;6504;53.766;9.626;2023-03-14T13:43:10;6.50;;;1.93;;
12871;SDS011;6504;53.766;9.626;2023-03-14T13:45:52;8.00;;;2.30;;
12871;SDS011;6504;53.766;9.626;2023-03-14T13:48:22;8.00;;;1.93;;
12871;SDS011;6504;53.766;9.626;2023-03-14T13:50:55;9.73;;;2.27;;
12871;SDS011;6504;53.766;9.626;2023-03-14T13:53:26;4.73;;;2.20;;
12871;SDS011;6504;53.766;9.626;2023-03-14T13:55:56;6.00;;;1.87;;
12871;SDS011;6504;53.766;9.626;2023-03-14T13:58:25;9.70;;;2.13;;
12871;SDS011;6504;53.766;9.626;2023-03-14T14:00:58;8.40;;;2.20;;
12871;SDS011;6504;53.766;9.626;2023-03-14T14:03:33;4.37;;;1.90;;
12871;SDS011;6504;53.766;9.626;2023-03-14T14:06:05;4.00;;;1.70;;
12871;SDS011;6504;53.766;9.626;2023-03-14T14:08:40;7.27;;;2.50;;
12871;SDS011;6504;53.766;9.626;2023-03-14T14:11:10;8.87;;;2.07;;
12871;SDS011;6504;53.766;9.626;2023-03-14T14:13:51;8.33;;;2.40;;
12871;SDS011;6504;53.766;9.626;2023-03-14T14:16:19;3.87;;;1.60;;
12871;SDS011;6504;53.766;9.626;2023-03-14T14:18:51;4.60;;;1.53;;
12871;SDS011;6504;53.766;9.626;2023-03-14T14:21:22;6.10;;;1.80;;
12871;SDS011;6504;53.766;9.626;2023-03-14T14:23:51;3.97;;;1.43;;
12871;SDS011;6504;53.766;9.626;2023-03-14T14:26:22;6.80;;;1.73;;
12871;SDS011;6504;53.766;9.626;2023-03-14T14:28:58;7.80;;;1.80;;
12871;SDS011;6504;53.766;9.626;2023-03-14T14:31:27;4.83;;;1.80;;
12871;SDS011;6504;53.766;9.626;2023-03-14T14:33:56;6.03;;;1.93;;
12871;SDS011;6504;53.766;9.626;2023-03-14T14:36:26;4.80;;;2.07;;
12871;SDS011;6504;53.766;9.626;2023-03-14T14:38:57;7.73;;;2.00;;
12871;SDS011;6504;53.766;9.626;2023-03-14T14:41:29;6.93;;;2.20;;
12871;SDS011;6504;53.766;9.626;2023-03-14T14:43:59;4.77;;;2.17;;
12871;SDS011;6504;53.766;9.626;2023-03-14T14:46:28;7.73;;;2.00;;
12871;SDS011;6504;53.766;9.626;2023-03-14T14:49:03;8.13;;;2.30;;
12871;SDS011;6504;53.766;9.626;2023-03-14T14:51:38;6.10;;;2.30;;
12871;SDS011;6504;53.766;9.626;2023-03-14T14:54:11;11.27;;;2.97;;
12871;SDS011;6504;53.766;9.626;2023-03-14T14:56:46;7.17;;;2.03;;
12871;SDS011;6504;53.766;9.626;2023-03-14T14:59:23;8.43;;;2.60;;
12871;SDS011;6504;53.766;9.626;2023-03-14T15:01:57;9.67;;;2.70;;
12871;SDS011;6504;53.766;9.626;2023-03-14T15:04:26;10.17;;;3.30;;
12871;SDS011;6504;53.766;9.626;2023-03-14T15:06:57;8.10;;;2.83;;
12871;SDS011;6504;53.766;9.626;2023-03-14T15:09:25;9.17;;;2.20;;
12871;SDS011;6504;53.766;9.626;2023-03-14T15:11:54;8.43;;;3.10;;
12871;SDS011;6504;53.766;9.626;2023-03-14T15:14:22;9.87;;;2.53;;
12871;SDS011;6504;53.766;9.626;2023-03-14T15:16:50;8.27;;;2.40;;
12871;SDS011;6504;53.766;9.626;2023-03-14T15:19:20;6.60;;;2.40;;
12871;SDS011;6504;53.766;9.626;2023-03-14T15:21:51;7.53;;;2.20;;
12871;SDS011;6504;53.766;9.626;2023-03-14T15:24:19;9.17;;;2.67;;
12871;SDS011;6504;53.766;9.626;2023-03-14T15:26:48;4.97;;;2.10;;
12871;SDS011;6504;53.766;9.626;2023-03-14T15:29:17;7.50;;;2.17;;
12871;SDS011;6504;53.766;9.626;2023-03-14T15:31:45;5.90;;;2.17;;